Time;durP1;ratioP1;P1;durP2;ratioP2;P2;SDS_P1;SDS_P2;PMS_P1;PMS_P2;Temp;Humidity;BMP_temperature;BMP_pressure;BME280_temperature;BME280_humidity;BME280_pressure;Samples;Min_cycle;Max_cycle;Signal;HPM_P1;HPM_P2
2023/05/09 00:00:09;;;;;;;2.50;1.83;;;;;13.60;96247.00;;;;5053673;28;20188;-58
2023/05/09 00:02:37;;;;;;;2.00;1.90;;;;;13.60;96257.00;;;;5053687;28;20184;-58
2023/05/09 00:05:06;;;;;;;2.33;2.13;;;;;13.50;96249.00;;;;5053528;28;20212;-58
2023/05/09 00:07:34;;;;;;;1.20;1.20;;;;;13.60;96248.00;;;;5053488;28;20196;-57
2023/05/09 00:10:01;;;;;;;2.70;2.50;;;;;13.40;96241.00;;;;5053252;28;20211;-58
2023/05/09 00:12:30;;;;;;;1.63;1.53;;;;;13.50;96244.00;;;;5053110;28;20246;-58
2023/05/09 00:14:59;;;;;;;4.30;2.17;;;;;13.50;96243.00;;;;5053166;28;20215;-57
2023/05/09 00:17:27;;;;;;;4.63;2.47;;;;;13.40;96241.00;;;;5053226;28;20198;-58
2023/05/09 00:19:55;;;;;;;3.03;2.67;;;;;13.20;96235.00;;;;5053177;28;20192;-58
2023/05/09 00:22:22;;;;;;;2.17;2.07;;;;;13.20;96234.00;;;;5053210;28;20196;-58
2023/05/09 00:24:50;;;;;;;4.00;3.47;;;;;13.20;96229.00;;;;5053056;28;20257;-57
2023/05/09 00:27:18;;;;;;;2.17;1.97;;;;;12.90;96236.00;;;;5053151;28;20245;-58
2023/05/09 00:29:45;;;;;;;1.57;1.47;;;;;12.80;96238.00;;;;5053331;28;20238;-57
2023/05/09 00:32:14;;;;;;;1.73;1.63;;;;;12.80;96240.00;;;;5053079;28;20196;-57
2023/05/09 00:34:41;;;;;;;2.47;2.27;;;;;12.80;96244.00;;;;5053052;28;20208;-58
2023/05/09 00:37:11;;;;;;;1.87;1.77;;;;;12.80;96244.00;;;;5053368;28;20188;-57
2023/05/09 00:39:39;;;;;;;1.03;1.03;;;;;12.90;96238.00;;;;5053258;28;20527;-57
2023/05/09 00:42:06;;;;;;;2.23;2.13;;;;;12.80;96237.00;;;;5052918;28;20195;-58
2023/05/09 00:44:34;;;;;;;1.57;1.50;;;;;12.90;96243.00;;;;5053134;28;20285;-57
2023/05/09 00:47:01;;;;;;;2.80;2.60;;;;;12.90;96232.00;;;;5052835;28;20195;-58
2023/05/09 00:49:30;;;;;;;2.83;1.63;;;;;12.90;96231.00;;;;5052821;28;20216;-57
2023/05/09 00:51:58;;;;;;;2.00;1.90;;;;;13.10;96223.00;;;;5053017;28;20246;-58
2023/05/09 00:54:26;;;;;;;1.53;1.43;;;;;13.00;96222.00;;;;5052705;28;20269;-58
2023/05/09 00:56:53;;;;;;;1.97;1.87;;;;;13.10;96223.00;;;;5053120;28;20616;-57
2023/05/09 00:59:21;;;;;;;2.73;2.53;;;;;13.10;96208.00;;;;5053303;28;20188;-57
2023/05/09 01:01:48;;;;;;;2.20;2.03;;;;;12.90;96218.00;;;;5052764;28;20223;-57
2023/05/09 01:04:16;;;;;;;6.40;2.60;;;;;12.80;96199.00;;;;5052844;28;20223;-57
2023/05/09 01:06:53;;;;;;;8.00;2.53;;;;;12.80;96195.00;;;;5052980;28;20666;-57
2023/05/09 01:09:28;;;;;;;1.83;1.70;;;;;12.90;96195.00;;;;5052786;28;20200;-58
2023/05/09 01:12:03;;;;;;;1.93;1.83;;;;;13.00;96204.00;;;;5034911;28;20188;-58
2023/05/09 01:14:40;;;;;;;2.50;2.40;;;;;13.00;96197.00;;;;5052832;28;20269;-57
2023/05/09 01:17:25;;;;;;;1.53;1.43;;;;;13.10;96198.00;;;;5052984;28;20176;-57
2023/05/09 01:20:00;;;;;;;2.43;2.17;;;;;13.10;96191.00;;;;5052722;28;20204;-57
2023/05/09 01:22:33;;;;;;;2.13;1.93;;;;;13.20;96198.00;;;;5053137;28;20701;-58
2023/05/09 01:25:27;;;;;;;1.90;1.80;;;;;13.20;96199.00;;;;5056913;28;20273;-58
2023/05/09 01:28:05;;;;;;;1.53;1.43;;;;;13.20;96191.00;;;;5056555;28;20499;-57
2023/05/09 01:30:37;;;;;;;1.20;1.20;;;;;13.20;96181.00;;;;5056443;28;20546;-57
2023/05/09 01:33:07;;;;;;;1.77;1.67;;;;;13.20;96176.00;;;;5056449;28;20611;-57
2023/05/09 01:35:38;;;;;;;2.13;1.93;;;;;13.30;96173.00;;;;5056284;28;20215;-57
2023/05/09 01:38:12;;;;;;;1.63;1.53;;;;;13.30;96175.00;;;;5038502;28;20208;-57
2023/05/09 01:40:42;;;;;;;1.50;1.43;;;;;13.30;96171.00;;;;5056067;28;20287;-57
2023/05/09 01:43:11;;;;;;;1.10;1.10;;;;;13.30;96176.00;;;;5056210;28;20219;-57
2023/05/09 01:45:41;;;;;;;1.60;1.57;;;;;13.20;96176.00;;;;5054559;28;20226;-57
2023/05/09 01:48:09;;;;;;;1.73;1.63;;;;;13.20;96182.00;;;;5055889;28;20203;-57
2023/05/09 01:50:39;;;;;;;1.20;1.20;;;;;13.20;96175.00;;;;5055999;28;20230;-57
2023/05/09 01:53:07;;;;;;;4.00;2.43;;;;;13.20;96181.00;;;;5055734;28;20192;-57
2023/05/09 01:55:37;;;;;;;2.43;2.27;;;;;13.20;96176.00;;;;5055557;28;20231;-57
2023/05/09 01:58:06;;;;;;;1.57;1.47;;;;;13.20;96180.00;;;;5056242;28;20200;-57
2023/05/09 02:00:34;;;;;;;1.40;1.30;;;;;13.00;96170.00;;;;5055627;28;20195;-57
2023/05/09 02:03:04;;;;;;;1.63;1.53;;;;;13.20;96175.00;;;;5055574;28;20220;-57
2023/05/09 02:05:33;;;;;;;1.00;1.00;;;;;13.10;96160.00;;;;5055457;28;20212;-57
2023/05/09 02:08:00;;;;;;;2.03;1.93;;;;;13.10;96169.00;;;;5055460;28;20249;-57
2023/05/09 02:10:29;;;;;;;1.50;1.03;;;;;13.10;96159.00;;;;5055366;28;20749;-57
2023/05/09 02:12:56;;;;;;;1.87;1.77;;;;;13.20;96167.00;;;;5055667;28;20192;-57
2023/05/09 02:15:25;;;;;;;2.27;2.07;;;;;13.20;96168.00;;;;5055523;28;20647;-58
2023/05/09 02:17:53;;;;;;;1.80;1.70;;;;;13.20;96172.00;;;;5055293;28;20266;-57
2023/05/09 02:20:22;;;;;;;2.67;2.47;;;;;13.10;96172.00;;;;5055300;28;20196;-57
2023/05/09 02:22:49;;;;;;;2.50;2.30;;;;;13.00;96173.00;;;;5037366;28;20250;-57
2023/05/09 02:25:17;;;;;;;1.80;1.70;;;;;12.80;96165.00;;;;5055117;28;20230;-57
2023/05/09 02:27:49;;;;;;;1.63;1.53;;;;;12.60;96154.00;;;;5055379;28;20552;-57
2023/05/09 02:30:22;;;;;;;1.13;1.13;;;;;12.70;96146.00;;;;5055067;28;20196;-57
2023/05/09 02:32:53;;;;;;;1.30;1.30;;;;;12.70;96148.00;;;;5055081;28;20639;-57
2023/05/09 02:35:23;;;;;;;1.50;1.40;;;;;12.70;96149.00;;;;5054544;28;20614;-57
2023/05/09 02:37:51;;;;;;;1.40;1.10;;;;;12.70;96142.00;;;;5054940;28;20200;-57
2023/05/09 02:40:19;;;;;;;1.90;1.77;;;;;12.80;96146.00;;;;5055457;28;20195;-57
2023/05/09 02:42:46;;;;;;;2.00;1.90;;;;;12.80;96161.00;;;;5054851;28;20192;-57
2023/05/09 02:45:14;;;;;;;2.30;1.33;;;;;12.90;96161.00;;;;5036798;28;20274;-57
2023/05/09 02:47:41;;;;;;;3.53;1.00;;;;;12.80;96154.00;;;;5054717;28;20188;-57
2023/05/09 02:50:09;;;;;;;2.23;2.10;;;;;12.50;96151.00;;;;5054648;28;20691;-57
2023/05/09 02:52:38;;;;;;;1.97;1.87;;;;;12.60;96145.00;;;;5036771;28;20200;-57
2023/05/09 02:55:07;;;;;;;1.70;1.70;;;;;12.50;96146.00;;;;5054464;28;20239;-57
2023/05/09 02:57:34;;;;;;;2.93;1.07;;;;;12.60;96149.00;;;;5054526;28;20216;-58
2023/05/09 03:00:02;;;;;;;2.40;2.20;;;;;12.50;96146.00;;;;5054527;28;20195;-57
2023/05/09 03:02:29;;;;;;;2.00;1.90;;;;;12.60;96141.00;;;;5054736;28;20188;-56
2023/05/09 03:04:56;;;;;;;1.30;1.30;;;;;12.50;96143.00;;;;5054389;28;20204;-57
2023/05/09 03:07:24;;;;;;;1.83;1.73;;;;;12.50;96131.00;;;;5054353;28;20200;-57
2023/05/09 03:09:53;;;;;;;2.53;2.20;;;;;12.50;96131.00;;;;5036592;28;20224;-57
2023/05/09 03:12:20;;;;;;;1.27;1.27;;;;;12.50;96136.00;;;;5054236;28;20200;-56
2023/05/09 03:14:47;;;;;;;0.97;0.97;;;;;12.50;96133.00;;;;5054145;28;20219;-57
2023/05/09 03:17:16;;;;;;;1.70;1.60;;;;;12.50;96134.00;;;;5054178;28;20253;-56
2023/05/09 03:19:43;;;;;;;5.57;2.33;;;;;12.50;96131.00;;;;5054692;28;20184;-57
2023/05/09 03:22:11;;;;;;;1.73;1.63;;;;;12.60;96133.00;;;;5054081;28;20198;-56
2023/05/09 03:24:38;;;;;;;2.07;1.97;;;;;12.70;96130.00;;;;5054209;28;20638;-57
2023/05/09 03:27:07;;;;;;;0.93;0.93;;;;;12.60;96115.00;;;;5036147;28;20191;-56
2023/05/09 03:29:34;;;;;;;1.97;1.43;;;;;12.50;96108.00;;;;5054121;28;20223;-57
2023/05/09 03:32:02;;;;;;;1.80;1.70;;;;;12.50;96117.00;;;;5035926;28;20199;-57
2023/05/09 03:34:29;;;;;;;1.20;1.20;;;;;12.50;96121.00;;;;5053756;28;20250;-56
2023/05/09 03:36:57;;;;;;;2.57;2.40;;;;;12.50;96115.00;;;;5053739;28;20200;-57
2023/05/09 03:39:25;;;;;;;1.00;1.00;;;;;12.50;96108.00;;;;5053948;28;20195;-56
2023/05/09 03:41:52;;;;;;;0.87;0.87;;;;;12.60;96103.00;;;;5053919;28;20196;-57
2023/05/09 03:44:21;;;;;;;1.80;1.70;;;;;12.60;96105.00;;;;5053605;28;20208;-57
2023/05/09 03:46:48;;;;;;;0.93;0.93;;;;;12.60;96108.00;;;;5052651;28;20202;-57
2023/05/09 03:49:16;;;;;;;1.40;1.33;;;;;12.60;96101.00;;;;5053418;28;20244;-57
2023/05/09 03:51:43;;;;;;;2.03;1.53;;;;;12.70;96098.00;;;;5053817;28;20198;-57
2023/05/09 03:54:11;;;;;;;1.07;1.07;;;;;12.70;96095.00;;;;5053484;28;20224;-57
2023/05/09 03:56:38;;;;;;;1.40;1.30;;;;;12.60;96109.00;;;;5053746;28;20701;-57
2023/05/09 03:59:06;;;;;;;2.00;1.90;;;;;12.70;96098.00;;;;5053358;28;20196;-57
2023/05/09 04:01:34;;;;;;;2.50;2.30;;;;;12.70;96100.00;;;;5035447;28;20196;-57
2023/05/09 04:04:02;;;;;;;1.93;1.83;;;;;12.70;96105.00;;;;5053449;28;20216;-57
2023/05/09 04:06:29;;;;;;;2.00;1.63;;;;;12.70;96109.00;;;;5053314;28;20195;-57
2023/05/09 04:08:57;;;;;;;1.17;1.17;;;;;12.60;96101.00;;;;5035345;28;20227;-57
2023/05/09 04:11:24;;;;;;;1.80;1.70;;;;;12.50;96102.00;;;;5053106;28;20322;-56
2023/05/09 04:13:52;;;;;;;1.77;1.63;;;;;12.50;96093.00;;;;5053156;28;20215;-57
2023/05/09 04:16:19;;;;;;;3.20;1.33;;;;;12.50;96089.00;;;;5035311;28;20200;-57
2023/05/09 04:18:48;;;;;;;1.60;1.47;;;;;12.50;96087.00;;;;5053042;28;20195;-57
2023/05/09 04:21:16;;;;;;;0.87;0.87;;;;;12.60;96091.00;;;;5053045;28;20241;-57
2023/05/09 04:23:43;;;;;;;0.77;0.77;;;;;12.60;96097.00;;;;5053652;28;20669;-57
2023/05/09 04:26:12;;;;;;;1.20;1.20;;;;;12.60;96088.00;;;;5053297;28;20209;-57
2023/05/09 04:28:40;;;;;;;1.80;1.70;;;;;12.70;96084.00;;;;5053451;28;20559;-60
2023/05/09 04:31:07;;;;;;;1.00;1.00;;;;;12.80;96081.00;;;;5052973;28;20220;-56
2023/05/09 04:33:37;;;;;;;1.87;1.77;;;;;12.90;96085.00;;;;5053387;28;20227;-57
2023/05/09 04:36:06;;;;;;;1.77;1.57;;;;;12.90;96094.00;;;;5052917;28;20192;-56
2023/05/09 04:38:34;;;;;;;1.63;1.53;;;;;12.90;96087.00;;;;5052897;28;20188;-56
2023/05/09 04:41:01;;;;;;;0.93;0.93;;;;;12.90;96091.00;;;;5052894;28;20226;-56
2023/05/09 04:43:30;;;;;;;1.63;1.53;;;;;12.90;96102.00;;;;5052752;28;20195;-57
2023/05/09 04:45:57;;;;;;;1.00;1.00;;;;;13.00;96095.00;;;;5052943;28;20250;-57
2023/05/09 04:48:24;;;;;;;1.13;1.13;;;;;12.90;96101.00;;;;5052792;28;20199;-58
2023/05/09 04:50:52;;;;;;;1.43;1.33;;;;;12.90;96102.00;;;;5052736;28;20247;-56
2023/05/09 04:53:21;;;;;;;1.00;1.00;;;;;13.00;96095.00;;;;5053062;28;20223;-58
2023/05/09 04:55:48;;;;;;;1.73;1.63;;;;;13.20;96091.00;;;;5053040;28;20238;-57
2023/05/09 04:58:16;;;;;;;2.30;1.53;;;;;13.30;96088.00;;;;5054991;28;20241;-57
2023/05/09 05:00:43;;;;;;;1.23;1.23;;;;;13.40;96084.00;;;;5057299;28;20294;-57
2023/05/09 05:03:11;;;;;;;1.00;1.00;;;;;13.40;96087.00;;;;5057274;28;20192;-57
2023/05/09 05:05:39;;;;;;;1.50;1.40;;;;;13.50;96089.00;;;;5056645;28;20227;-57
2023/05/09 05:08:06;;;;;;;0.93;0.93;;;;;13.50;96086.00;;;;5057560;28;20549;-58
2023/05/09 05:10:35;;;;;;;0.87;0.87;;;;;13.30;96085.00;;;;5056509;28;20552;-57
2023/05/09 05:13:03;;;;;;;1.80;1.70;;;;;13.30;96086.00;;;;5056784;28;20608;-57
2023/05/09 05:15:30;;;;;;;2.17;1.37;;;;;13.20;96086.00;;;;5056683;28;20220;-57
2023/05/09 05:17:57;;;;;;;1.30;1.30;;;;;13.30;96092.00;;;;5057253;28;20583;-58
2023/05/09 05:20:25;;;;;;;1.57;1.20;;;;;13.30;96087.00;;;;5056194;28;20187;-57
2023/05/09 05:22:53;;;;;;;1.20;1.20;;;;;13.30;96080.00;;;;5056248;28;20610;-58
2023/05/09 05:25:21;;;;;;;0.80;0.80;;;;;13.40;96078.00;;;;5056265;28;20314;-57
2023/05/09 05:27:50;;;;;;;0.70;0.70;;;;;13.40;96082.00;;;;5056707;28;20258;-57
2023/05/09 05:30:19;;;;;;;1.20;1.20;;;;;13.30;96089.00;;;;5038358;28;20219;-56
2023/05/09 05:32:47;;;;;;;1.50;1.30;;;;;13.50;96085.00;;;;5056256;28;20230;-56
2023/05/09 05:35:14;;;;;;;1.00;1.00;;;;;13.40;96072.00;;;;5055974;28;20219;-57
2023/05/09 05:37:42;;;;;;;1.60;1.50;;;;;13.50;96075.00;;;;5056072;28;20219;-57
2023/05/09 05:40:10;;;;;;;1.00;1.00;;;;;13.60;96075.00;;;;5056187;28;20241;-57
2023/05/09 05:42:38;;;;;;;1.17;1.17;;;;;13.60;96075.00;;;;5055870;28;20254;-57
2023/05/09 05:45:08;;;;;;;0.60;0.60;;;;;13.70;96071.00;;;;5055827;28;20216;-58
2023/05/09 05:47:36;;;;;;;0.90;0.90;;;;;13.70;96076.00;;;;5055720;28;20199;-58
2023/05/09 05:50:07;;;;;;;1.40;1.33;;;;;13.80;96074.00;;;;5037795;28;20223;-58
2023/05/09 05:52:38;;;;;;;1.67;1.57;;;;;13.80;96075.00;;;;5056061;28;20206;-57
2023/05/09 05:55:06;;;;;;;1.53;1.43;;;;;13.90;96079.00;;;;5055422;28;20227;-57
2023/05/09 05:57:34;;;;;;;1.00;1.00;;;;;13.90;96075.00;;;;5055615;28;20222;-57
2023/05/09 06:00:04;;;;;;;1.83;1.73;;;;;14.10;96072.00;;;;5055801;28;20195;-57
2023/05/09 06:02:33;;;;;;;0.80;0.80;;;;;14.10;96068.00;;;;5055620;28;20218;-57
2023/05/09 06:05:02;;;;;;;1.47;1.43;;;;;14.30;96065.00;;;;5055391;28;20215;-57
2023/05/09 06:07:30;;;;;;;1.07;1.07;;;;;14.20;96070.00;;;;5037530;28;20202;-57
2023/05/09 06:09:57;;;;;;;1.03;1.03;;;;;14.20;96053.00;;;;5054213;28;20662;-58
2023/05/09 06:12:25;;;;;;;2.13;1.37;;;;;14.20;96049.00;;;;5055491;28;20655;-58
2023/05/09 06:14:52;;;;;;;0.73;0.73;;;;;14.40;96051.00;;;;5037526;28;20611;-58
2023/05/09 06:17:20;;;;;;;0.90;0.90;;;;;14.50;96037.00;;;;5055217;28;20275;-58
2023/05/09 06:19:49;;;;;;;1.63;1.53;;;;;14.70;96045.00;;;;5040841;28;20204;-57
2023/05/09 06:22:16;;;;;;;1.60;1.50;;;;;14.90;96044.00;;;;5036130;28;20224;-57
2023/05/09 06:24:43;;;;;;;0.80;0.80;;;;;14.90;96043.00;;;;5035728;28;20307;-57
2023/05/09 06:27:11;;;;;;;1.53;1.43;;;;;14.90;96042.00;;;;5051620;28;20202;-57
2023/05/09 06:29:38;;;;;;;1.63;1.53;;;;;14.90;96044.00;;;;5034822;28;20288;-55
2023/05/09 06:32:06;;;;;;;0.70;0.70;;;;;15.00;96041.00;;;;5046274;28;20212;-55
2023/05/09 06:34:33;;;;;;;1.10;1.10;;;;;15.20;96043.00;;;;5033254;28;20220;-57
2023/05/09 06:37:02;;;;;;;1.10;1.10;;;;;15.40;96042.00;;;;5050921;28;20250;-57
2023/05/09 06:39:29;;;;;;;1.37;1.27;;;;;15.50;96045.00;;;;5051604;28;20199;-57
2023/05/09 06:41:57;;;;;;;1.07;0.97;;;;;15.60;96039.00;;;;5025849;28;20199;-57
2023/05/09 06:44:24;;;;;;;0.70;0.70;;;;;15.70;96030.00;;;;5033076;28;20266;-57
2023/05/09 06:46:52;;;;;;;0.90;0.90;;;;;15.80;96031.00;;;;5029924;28;20231;-57
2023/05/09 06:49:19;;;;;;;0.90;0.90;;;;;15.70;96016.00;;;;5034226;28;20541;-57
2023/05/09 06:51:46;;;;;;;1.03;1.03;;;;;15.90;96015.00;;;;5033691;28;20735;-57
2023/05/09 06:54:16;;;;;;;0.80;0.80;;;;;16.20;96016.00;;;;5015635;28;20232;-57
2023/05/09 06:56:43;;;;;;;1.13;1.13;;;;;16.20;96011.00;;;;5030929;28;20288;-57
2023/05/09 06:59:12;;;;;;;1.20;1.20;;;;;16.20;96011.00;;;;5032736;28;20204;-56
2023/05/09 07:01:39;;;;;;;1.23;1.20;;;;;16.20;96012.00;;;;5031690;28;20552;-57
2023/05/09 07:04:07;;;;;;;0.90;0.90;;;;;16.40;96018.00;;;;5032359;28;20248;-57
2023/05/09 07:06:34;;;;;;;1.17;1.17;;;;;16.30;96019.00;;;;5032104;28;20546;-57
2023/05/09 07:09:03;;;;;;;0.70;0.70;;;;;16.30;96018.00;;;;5039240;28;20204;-57
2023/05/09 07:11:35;;;;;;;1.33;1.27;;;;;16.20;96004.00;;;;5052586;28;20304;-57
2023/05/09 07:14:03;;;;;;;0.90;0.90;;;;;16.00;96009.00;;;;5051614;28;20294;-57
2023/05/09 07:16:30;;;;;;;0.90;0.90;;;;;15.80;95994.00;;;;5033233;28;20504;-57
2023/05/09 07:18:58;;;;;;;1.73;1.63;;;;;16.10;95988.00;;;;5031979;28;20199;-57
2023/05/09 07:21:25;;;;;;;1.17;1.17;;;;;16.30;95974.00;;;;5032156;28;20200;-57
2023/05/09 07:23:53;;;;;;;0.70;0.70;;;;;16.30;95975.00;;;;5031624;28;20232;-57
2023/05/09 07:26:20;;;;;;;1.33;1.23;;;;;16.60;95966.00;;;;5032283;28;20197;-57
2023/05/09 07:28:49;;;;;;;1.33;1.27;;;;;16.80;95971.00;;;;5030861;28;20203;-57
2023/05/09 07:31:16;;;;;;;1.17;1.17;;;;;16.80;95965.00;;;;5052257;28;20570;-57
2023/05/09 07:33:44;;;;;;;1.00;1.00;;;;;16.90;95967.00;;;;5051271;28;20211;-57
2023/05/09 07:36:13;;;;;;;1.03;1.03;;;;;17.10;95970.00;;;;5052177;28;20303;-58
2023/05/09 07:38:40;;;;;;;4.40;1.77;;;;;16.90;95963.00;;;;5051241;28;20207;-57
2023/05/09 07:41:08;;;;;;;0.90;0.90;;;;;16.60;95960.00;;;;5051990;28;20203;-56
2023/05/09 07:43:35;;;;;;;1.00;1.00;;;;;16.70;95963.00;;;;5051657;28;20211;-57
2023/05/09 07:46:04;;;;;;;0.80;0.80;;;;;16.90;95966.00;;;;5051797;28;20625;-57
2023/05/09 07:48:32;;;;;;;1.30;1.20;;;;;16.90;95961.00;;;;5050961;28;20200;-57
2023/05/09 07:50:59;;;;;;;3.20;1.63;;;;;16.60;95963.00;;;;5051740;28;20216;-57
2023/05/09 07:53:26;;;;;;;3.43;1.20;;;;;16.60;95953.00;;;;5033269;28;20196;-57
2023/05/09 07:55:54;;;;;;;1.67;1.57;;;;;16.50;95955.00;;;;5054641;22;20722;-56
2023/05/09 07:58:21;;;;;;;0.87;0.87;;;;;16.60;95952.00;;;;5031329;28;20196;-56
2023/05/09 08:00:51;;;;;;;0.80;0.80;;;;;16.60;95944.00;;;;5037539;28;20203;-56
2023/05/09 08:03:20;;;;;;;1.23;1.23;;;;;16.40;95927.00;;;;5051444;28;20557;-56
2023/05/09 08:05:48;;;;;;;0.90;0.90;;;;;16.40;95934.00;;;;5039969;28;20223;-56
2023/05/09 08:08:15;;;;;;;1.23;1.20;;;;;16.50;95932.00;;;;5030143;28;20287;-56
2023/05/09 08:10:43;;;;;;;1.00;1.00;;;;;16.70;95935.00;;;;5031330;28;20311;-56
2023/05/09 08:13:10;;;;;;;1.70;1.60;;;;;16.80;95936.00;;;;5030049;28;20667;-56
2023/05/09 08:15:38;;;;;;;1.67;1.57;;;;;16.80;95925.00;;;;5030821;28;20216;-57
2023/05/09 08:18:06;;;;;;;0.87;0.87;;;;;16.70;95913.00;;;;5031628;28;20573;-56
2023/05/09 08:20:35;;;;;;;1.20;1.20;;;;;16.70;95915.00;;;;5030597;28;20228;-57
2023/05/09 08:23:02;;;;;;;1.57;1.47;;;;;17.10;95916.00;;;;5007126;28;20247;-57
2023/05/09 08:25:30;;;;;;;1.53;1.43;;;;;17.00;95913.00;;;;5011920;28;20221;-57
2023/05/09 08:27:57;;;;;;;1.73;1.63;;;;;17.10;95912.00;;;;5011877;28;20757;-57
2023/05/09 08:30:25;;;;;;;2.07;1.87;;;;;17.40;95915.00;;;;5011326;28;20708;-57
2023/05/09 08:32:52;;;;;;;2.87;1.20;;;;;17.70;95902.00;;;;5009769;28;20209;-56
2023/05/09 08:35:20;;;;;;;1.80;1.70;;;;;18.20;95899.00;;;;5017366;28;20220;-57
2023/05/09 08:37:48;;;;;;;1.23;1.23;;;;;18.10;95906.00;;;;5018355;28;20205;-57
2023/05/09 08:40:16;;;;;;;0.87;0.87;;;;;18.00;95901.00;;;;5028457;28;20569;-57
2023/05/09 08:42:45;;;;;;;1.70;1.60;;;;;18.20;95899.00;;;;5037528;28;20193;-57
2023/05/09 08:45:14;;;;;;;1.03;1.03;;;;;18.30;95867.00;;;;5037538;28;20225;-61
2023/05/09 08:47:42;;;;;;;2.10;1.17;;;;;18.70;95884.00;;;;5036929;28;20280;-57
2023/05/09 08:50:13;;;;;;;0.90;0.90;;;;;19.10;95878.00;;;;5037558;28;20193;-57
2023/05/09 08:52:41;;;;;;;0.93;0.93;;;;;19.10;95883.00;;;;5037278;28;20213;-58
2023/05/09 08:55:11;;;;;;;1.00;1.00;;;;;18.80;95890.00;;;;5037314;28;20698;-57
2023/05/09 08:57:39;;;;;;;1.93;1.77;;;;;18.50;95884.00;;;;5037450;28;20247;-57
2023/05/09 09:00:10;;;;;;;1.63;1.53;;;;;18.30;95881.00;;;;5030428;28;20259;-57
2023/05/09 09:02:40;;;;;;;1.77;1.67;;;;;18.20;95882.00;;;;5029565;28;20617;-57
2023/05/09 09:05:08;;;;;;;1.57;1.47;;;;;18.40;95880.00;;;;5016708;28;20221;-57
2023/05/09 09:07:38;;;;;;;1.87;1.77;;;;;18.40;95880.00;;;;5017618;28;20996;-55
2023/05/09 09:10:07;;;;;;;1.40;1.30;;;;;18.40;95885.00;;;;5017569;28;20259;-57
2023/05/09 09:12:37;;;;;;;0.60;0.60;;;;;18.80;95884.00;;;;5017644;28;20306;-55
2023/05/09 09:15:06;;;;;;;0.70;0.70;;;;;18.60;95874.00;;;;5017455;28;20720;-55
2023/05/09 09:17:37;;;;;;;0.80;0.80;;;;;18.40;95876.00;;;;5021686;28;20228;-55
2023/05/09 09:20:08;;;;;;;0.73;0.73;;;;;18.30;95876.00;;;;5023567;28;20204;-56
2023/05/09 09:22:37;;;;;;;1.00;1.00;;;;;18.00;95873.00;;;;5017014;28;20194;-57
2023/05/09 09:25:05;;;;;;;1.80;1.70;;;;;17.90;95865.00;;;;5033311;28;20225;-59
2023/05/09 09:27:33;;;;;;;1.27;1.00;;;;;18.10;95860.00;;;;5036714;28;20193;-57
2023/05/09 09:30:09;;;;;;;2.80;1.47;;;;;18.00;95861.00;;;;5037529;28;20204;-57
2023/05/09 09:32:37;;;;;;;1.17;1.17;;;;;18.30;95859.00;;;;5036628;28;20695;-57
2023/05/09 09:35:08;;;;;;;1.00;1.00;;;;;18.20;95861.00;;;;5037620;28;20586;-57
2023/05/09 09:37:38;;;;;;;0.83;0.83;;;;;18.30;95853.00;;;;5036855;28;20196;-60
2023/05/09 09:40:08;;;;;;;0.67;0.67;;;;;18.20;95843.00;;;;5037716;28;20201;-57
2023/05/09 09:42:42;;;;;;;1.20;1.20;;;;;18.40;95844.00;;;;5036510;28;20204;-57
2023/05/09 09:45:13;;;;;;;0.70;0.70;;;;;18.70;95836.00;;;;5033570;28;20225;-57
2023/05/09 09:47:42;;;;;;;0.90;0.90;;;;;18.70;95835.00;;;;5032388;28;20228;-57
2023/05/09 09:50:14;;;;;;;0.90;0.90;;;;;18.70;95831.00;;;;5009004;28;20193;-57
2023/05/09 09:52:50;;;;;;;0.50;0.50;;;;;18.80;95827.00;;;;5024912;28;20217;-57
2023/05/09 09:55:19;;;;;;;1.13;1.07;;;;;19.10;95823.00;;;;5032331;28;20274;-57
2023/05/09 09:57:47;;;;;;;0.93;0.93;;;;;19.30;95811.00;;;;5013958;28;20280;-56
2023/05/09 10:00:18;;;;;;;0.90;0.90;;;;;19.20;95811.00;;;;5014081;28;20198;-56
2023/05/09 10:02:50;;;;;;;1.00;1.00;;;;;19.20;95807.00;;;;5018926;28;20189;-57
2023/05/09 10:05:21;;;;;;;0.67;0.67;;;;;19.40;95802.00;;;;5029035;28;20217;-57
2023/05/09 10:07:55;;;;;;;0.97;0.90;;;;;19.20;95796.00;;;;5013729;28;20193;-56
2023/05/09 10:10:27;;;;;;;0.63;0.63;;;;;19.50;95800.00;;;;5013742;28;20250;-57
2023/05/09 10:12:57;;;;;;;0.80;0.80;;;;;19.80;95794.00;;;;5013589;28;20212;-57
2023/05/09 10:15:28;;;;;;;1.10;1.00;;;;;20.10;95784.00;;;;5013506;28;20214;-56
2023/05/09 10:17:57;;;;;;;0.80;0.80;;;;;20.20;95782.00;;;;5025050;28;20197;-57
2023/05/09 10:20:25;;;;;;;1.03;1.03;;;;;20.20;95775.00;;;;5033411;28;20562;-57
2023/05/09 10:22:56;;;;;;;0.70;0.70;;;;;20.10;95778.00;;;;5033053;28;20532;-56
2023/05/09 10:25:33;;;;;;;0.60;0.60;;;;;20.00;95778.00;;;;5033327;28;20228;-56
2023/05/09 10:28:02;;;;;;;0.40;0.40;;;;;19.80;95775.00;;;;5029486;28;20220;-56
2023/05/09 10:30:36;;;;;;;0.70;0.70;;;;;19.60;95773.00;;;;5013161;28;20652;-56
2023/05/09 10:33:07;;;;;;;0.73;0.73;;;;;19.60;95781.00;;;;5011987;28;20217;-57
2023/05/09 10:35:40;;;;;;;0.97;0.93;;;;;19.30;95768.00;;;;5013664;28;20259;-57
2023/05/09 10:38:11;;;;;;;1.17;1.07;;;;;19.20;95769.00;;;;5013434;28;20190;-56
2023/05/09 10:40:40;;;;;;;0.93;0.93;;;;;19.40;95757.00;;;;5009622;28;20537;-59
2023/05/09 10:43:07;;;;;;;0.93;0.93;;;;;19.40;95756.00;;;;5013637;28;20576;-56
2023/05/09 10:45:36;;;;;;;1.00;1.00;;;;;19.40;95754.00;;;;5012533;28;20213;-57
2023/05/09 10:48:07;;;;;;;0.97;0.93;;;;;19.30;95749.00;;;;5013015;28;20252;-58
2023/05/09 10:50:35;;;;;;;0.80;0.80;;;;;19.50;95748.00;;;;5013004;28;20189;-57
2023/05/09 10:53:10;;;;;;;0.43;0.43;;;;;19.60;95737.00;;;;5013271;28;20228;-57
2023/05/09 10:55:39;;;;;;;1.00;0.93;;;;;19.90;95730.00;;;;5011905;28;20228;-58
2023/05/09 10:58:23;;;;;;;0.50;0.50;;;;;20.10;95730.00;;;;5013201;28;20209;-57
2023/05/09 11:00:54;;;;;;;0.70;0.70;;;;;20.00;95725.00;;;;5019724;28;20211;-57
2023/05/09 11:03:23;;;;;;;0.90;0.90;;;;;20.10;95720.00;;;;5032498;28;20211;-57
2023/05/09 11:05:52;;;;;;;0.80;0.80;;;;;19.90;95714.00;;;;5032230;28;20246;-58
2023/05/09 11:08:22;;;;;;;0.80;0.80;;;;;20.20;95707.00;;;;5026825;28;20201;-57
2023/05/09 11:10:50;;;;;;;0.60;0.60;;;;;20.40;95705.00;;;;5026197;28;20203;-58
2023/05/09 11:13:23;;;;;;;0.60;0.60;;;;;20.70;95696.00;;;;5028250;28;20599;-58
2023/05/09 11:16:11;;;;;;;1.13;1.13;;;;;20.80;95704.00;;;;5012340;28;20222;-55
2023/05/09 11:18:51;;;;;;;0.67;0.67;;;;;20.80;95703.00;;;;5011955;28;20259;-58
2023/05/09 11:21:20;;;;;;;0.97;0.97;;;;;20.80;95690.00;;;;5012713;28;20194;-56
2023/05/09 11:23:49;;;;;;;1.37;1.27;;;;;20.30;95692.00;;;;5011922;28;20207;-58
2023/05/09 11:26:22;;;;;;;1.53;1.43;;;;;20.40;95700.00;;;;5020043;28;20226;-56
2023/05/09 11:28:55;;;;;;;1.23;1.23;;;;;20.60;95694.00;;;;5031476;28;20275;-57
2023/05/09 11:31:24;;;;;;;1.37;1.37;;;;;20.70;95702.00;;;;5031937;28;20189;-57
2023/05/09 11:33:57;;;;;;;0.83;0.83;;;;;20.70;95688.00;;;;5031844;28;20671;-56
2023/05/09 11:36:32;;;;;;;1.53;1.43;;;;;20.80;95684.00;;;;5031763;28;20220;-56
2023/05/09 11:39:05;;;;;;;1.20;1.13;;;;;20.90;95670.00;;;;5008129;28;20677;-57
2023/05/09 11:41:38;;;;;;;0.90;0.90;;;;;21.30;95669.00;;;;5012088;28;20257;-56
2023/05/09 11:44:16;;;;;;;0.80;0.80;;;;;21.50;95657.00;;;;5024344;28;20193;-56
2023/05/09 11:46:45;;;;;;;0.80;0.80;;;;;21.00;95651.00;;;;5031450;28;20671;-56
2023/05/09 11:49:13;;;;;;;1.27;1.17;;;;;21.20;95645.00;;;;5031662;28;20200;-57
2023/05/09 11:51:41;;;;;;;1.27;1.17;;;;;21.40;95648.00;;;;5031522;28;20660;-57
2023/05/09 11:54:10;;;;;;;0.70;0.70;;;;;21.50;95647.00;;;;5031504;28;20196;-57
2023/05/09 11:56:40;;;;;;;0.85;0.85;;;;;21.80;95642.00;;;;5031355;28;20232;-57
2023/05/09 11:59:09;;;;;;;0.80;0.80;;;;;21.90;95644.00;;;;5012100;28;20263;-57
2023/05/09 12:01:37;;;;;;;0.80;0.80;;;;;22.10;95622.00;;;;5011652;28;20201;-57
2023/05/09 12:04:07;;;;;;;0.70;0.70;;;;;21.50;95620.00;;;;5011642;28;20538;-57
2023/05/09 12:06:35;;;;;;;0.80;0.80;;;;;21.60;95620.00;;;;5017150;28;20299;-57
2023/05/09 12:09:03;;;;;;;0.80;0.80;;;;;21.70;95622.00;;;;5030644;28;20687;-57
2023/05/09 12:11:31;;;;;;;0.70;0.70;;;;;21.70;95604.00;;;;5015071;28;20197;-57
2023/05/09 12:13:59;;;;;;;0.65;0.65;;;;;21.60;95602.00;;;;5011538;28;20213;-57
2023/05/09 12:16:26;;;;;;;1.25;1.23;;;;;21.60;95600.00;;;;5011478;28;20217;-57
2023/05/09 12:18:54;;;;;;;0.77;0.73;;;;;21.80;95604.00;;;;5009759;28;20194;-57
2023/05/09 12:21:22;;;;;;;0.90;0.90;;;;;21.60;95600.00;;;;5011540;28;20193;-57
2023/05/09 12:23:50;;;;;;;0.50;0.50;;;;;21.60;95600.00;;;;5011399;28;20194;-57
2023/05/09 12:26:17;;;;;;;0.88;0.88;;;;;22.00;95602.00;;;;5012820;28;20231;-57